Time;durP1;ratioP1;P1;durP2;ratioP2;P2;SDS_P1;SDS_P2;PMS_P1;PMS_P2;Temp;Humidity;BMP_temperature;BMP_pressure;BME280_temperature;BME280_humidity;BME280_pressure;Samples;Min_cycle;Max_cycle;Signal;HPM_P1;HPM_P2
2022/10/20 00:00:57;;;;;;;10.20;9.55;;;10.80;99.90;;;;;;4154826;28;20137;-58
2022/10/20 00:03:18;;;;;;;10.32;9.60;;;10.80;99.90;;;;;;4155695;28;20052;-57
2022/10/20 00:05:38;;;;;;;9.73;9.07;;;10.80;99.90;;;;;;4153841;28;20063;-57
2022/10/20 00:07:59;;;;;;;9.75;8.95;;;10.80;99.90;;;;;;4155722;28;20049;-58
2022/10/20 00:10:19;;;;;;;11.32;10.63;;;10.70;99.90;;;;;;4150150;28;20590;-57
2022/10/20 00:12:41;;;;;;;10.05;9.32;;;10.80;99.90;;;;;;4156911;28;20387;-57
2022/10/20 00:15:02;;;;;;;9.60;9.15;;;10.90;99.90;;;;;;4154443;28;20118;-58
2022/10/20 00:17:23;;;;;;;9.95;9.45;;;10.90;99.90;;;;;;4152531;28;20108;-57
2022/10/20 00:19:46;;;;;;;10.68;9.88;;;10.80;99.90;;;;;;4152399;28;20592;-56
2022/10/20 00:22:07;;;;;;;12.05;11.20;;;10.80;99.90;;;;;;4160117;28;20052;-56
2022/10/20 00:24:28;;;;;;;15.30;9.23;;;10.80;99.90;;;;;;4156050;28;20049;-58
2022/10/20 00:26:48;;;;;;;9.48;8.88;;;10.90;99.90;;;;;;4148477;28;20403;-58
2022/10/20 00:29:09;;;;;;;11.52;10.30;;;10.90;99.90;;;;;;4146199;28;20421;-57
2022/10/20 00:31:30;;;;;;;9.98;9.00;;;10.90;99.90;;;;;;4151949;28;20132;-57
2022/10/20 00:33:51;;;;;;;8.90;8.13;;;11.00;99.90;;;;;;4154105;28;20068;-57
2022/10/20 00:36:14;;;;;;;8.05;7.45;;;11.10;99.90;;;;;;4155810;28;20132;-58
2022/10/20 00:38:35;;;;;;;8.57;7.80;;;11.10;99.90;;;;;;4155786;28;20104;-57
2022/10/20 00:40:55;;;;;;;9.80;8.57;;;11.00;99.90;;;;;;4148111;28;20095;-58
2022/10/20 00:43:16;;;;;;;8.27;7.68;;;10.90;99.90;;;;;;4146764;28;20053;-58
2022/10/20 00:45:36;;;;;;;9.95;8.93;;;10.80;99.90;;;;;;4147604;28;20567;-58
2022/10/20 00:48:07;;;;;;;10.23;8.32;;;10.70;99.90;;;;;;4150108;28;20178;-58
2022/10/20 00:50:37;;;;;;;9.10;8.50;;;10.60;99.90;;;;;;4152090;28;20080;-56
2022/10/20 00:52:58;;;;;;;8.15;7.75;;;10.50;99.90;;;;;;4154016;28;20095;-58
2022/10/20 00:55:28;;;;;;;10.55;9.05;;;10.40;99.90;;;;;;4153421;28;20324;-58
2022/10/20 00:57:51;;;;;;;8.40;7.68;;;10.30;99.90;;;;;;4149911;28;20049;-57
2022/10/20 01:00:12;;;;;;;8.95;8.00;;;10.20;99.90;;;;;;4148184;28;20053;-58
2022/10/20 01:02:32;;;;;;;7.97;7.63;;;10.20;99.90;;;;;;4157729;28;20108;-57
2022/10/20 01:04:53;;;;;;;11.10;9.98;;;10.10;99.90;;;;;;4154109;28;20099;-58
2022/10/20 01:07:13;;;;;;;9.93;9.18;;;10.10;99.90;;;;;;4150256;28;20052;-58
2022/10/20 01:09:34;;;;;;;9.82;9.15;;;10.10;99.90;;;;;;4155300;28;20571;-57
2022/10/20 01:11:57;;;;;;;8.98;8.25;;;10.10;99.90;;;;;;4153462;28;20056;-57
2022/10/20 01:14:52;;;;;;;9.77;8.95;;;10.30;99.90;;;;;;4154591;28;20061;-57
2022/10/20 01:17:33;;;;;;;9.85;9.25;;;10.10;99.90;;;;;;4153908;28;20052;-58
2022/10/20 01:19:57;;;;;;;10.65;9.73;;;10.20;99.90;;;;;;4156679;28;20562;-57
2022/10/20 01:22:30;;;;;;;10.88;10.00;;;10.40;99.90;;;;;;4150123;28;20057;-58
2022/10/20 01:25:15;;;;;;;10.68;9.82;;;10.50;99.90;;;;;;4147513;28;20453;-58
2022/10/20 01:27:43;;;;;;;9.63;8.50;;;10.50;99.90;;;;;;4153771;28;20057;-57
2022/10/20 01:30:09;;;;;;;8.85;8.13;;;10.30;99.90;;;;;;4153578;28;20061;-56
2022/10/20 01:32:52;;;;;;;9.27;8.52;;;10.20;99.90;;;;;;4149813;28;20084;-56
2022/10/20 01:35:33;;;;;;;10.40;9.40;;;10.10;99.90;;;;;;4149899;28;20079;-58
2022/10/20 01:38:18;;;;;;;8.05;7.53;;;10.00;99.90;;;;;;4149160;28;20057;-58
2022/10/20 01:40:53;;;;;;;9.20;8.30;;;10.00;99.90;;;;;;4153267;28;20088;-58
2022/10/20 01:43:17;;;;;;;8.75;8.25;;;10.00;99.90;;;;;;4147316;28;20513;-58
2022/10/20 01:45:42;;;;;;;7.68;7.13;;;10.10;99.90;;;;;;4149813;28;20108;-58
2022/10/20 01:48:06;;;;;;;7.60;7.15;;;10.10;99.90;;;;;;4154944;28;20048;-58
2022/10/20 01:50:28;;;;;;;7.85;7.20;;;10.10;99.90;;;;;;4153728;28;20516;-58
2022/10/20 01:52:49;;;;;;;7.28;6.75;;;10.10;99.90;;;;;;4154166;28;20049;-58
2022/10/20 01:55:17;;;;;;;7.35;7.20;;;10.00;99.90;;;;;;4154842;28;20559;-58
2022/10/20 01:57:40;;;;;;;7.53;7.20;;;10.00;99.90;;;;;;4147307;28;20100;-58
2022/10/20 02:00:09;;;;;;;7.82;7.13;;;10.00;99.90;;;;;;4149632;28;20048;-58
2022/10/20 02:02:48;;;;;;;7.85;6.95;;;10.00;99.90;;;;;;4156055;28;20048;-57
2022/10/20 02:05:40;;;;;;;8.40;7.47;;;9.90;99.90;;;;;;4152052;28;20060;-58
2022/10/20 02:08:36;;;;;;;8.55;7.90;;;9.80;99.90;;;;;;4148281;28;20052;-57
2022/10/20 02:11:02;;;;;;;8.13;7.32;;;9.70;99.90;;;;;;4140445;28;20099;-58
2022/10/20 02:13:24;;;;;;;8.02;7.63;;;9.80;99.90;;;;;;4155046;28;20088;-58
2022/10/20 02:15:49;;;;;;;15.02;7.65;;;9.70;99.90;;;;;;4151045;28;20072;-58
2022/10/20 02:18:13;;;;;;;7.30;6.75;;;9.60;99.90;;;;;;4151830;28;20092;-58
2022/10/20 02:20:33;;;;;;;8.25;7.53;;;9.80;99.90;;;;;;4159649;28;20153;-58
2022/10/20 02:22:56;;;;;;;7.80;7.38;;;9.90;99.90;;;;;;4160979;28;20095;-58
2022/10/20 02:25:17;;;;;;;6.75;6.25;;;9.90;99.90;;;;;;4153681;28;20572;-57
2022/10/20 02:27:41;;;;;;;9.48;7.72;;;9.90;99.90;;;;;;4156915;28;20080;-58
2022/10/20 02:30:03;;;;;;;7.72;7.03;;;9.90;99.90;;;;;;4154969;28;20084;-58
2022/10/20 02:32:24;;;;;;;7.10;6.68;;;9.80;99.90;;;;;;4159168;28;20092;-58
2022/10/20 02:34:45;;;;;;;7.70;6.95;;;9.80;99.90;;;;;;4150604;28;20496;-58
2022/10/20 02:37:05;;;;;;;8.00;7.15;;;9.70;99.90;;;;;;4148838;28;20052;-57
2022/10/20 02:39:26;;;;;;;8.68;7.40;;;9.60;99.90;;;;;;4149512;28;20088;-57
2022/10/20 02:41:46;;;;;;;8.32;6.78;;;9.50;99.90;;;;;;4151117;28;20449;-58
2022/10/20 02:44:07;;;;;;;8.23;7.32;;;9.40;99.90;;;;;;4147673;28;20508;-58
2022/10/20 02:46:27;;;;;;;8.20;7.50;;;9.40;99.90;;;;;;4151217;28;20103;-58
2022/10/20 02:48:47;;;;;;;8.40;7.65;;;9.40;99.90;;;;;;4155706;28;20104;-58
2022/10/20 02:51:08;;;;;;;8.43;7.72;;;9.30;99.90;;;;;;4157816;28;20061;-58
2022/10/20 02:53:28;;;;;;;9.00;7.38;;;9.30;99.90;;;;;;4158338;28;20104;-58
2022/10/20 02:55:49;;;;;;;8.88;7.30;;;9.30;99.90;;;;;;4163183;28;20061;-58
2022/10/20 02:58:10;;;;;;;9.35;8.57;;;9.30;99.90;;;;;;4148806;28;20117;-57
2022/10/20 03:00:31;;;;;;;9.40;8.52;;;9.30;99.90;;;;;;4150457;28;20108;-58
2022/10/20 03:02:52;;;;;;;7.75;7.25;;;9.30;99.90;;;;;;4153571;28;20060;-58
2022/10/20 03:05:15;;;;;;;8.48;7.72;;;9.20;99.90;;;;;;4157340;28;20402;-58
2022/10/20 03:07:35;;;;;;;8.27;7.80;;;9.10;99.90;;;;;;4153902;28;20049;-58
2022/10/20 03:09:56;;;;;;;8.60;7.57;;;9.20;99.90;;;;;;4158125;28;20528;-58
2022/10/20 03:12:17;;;;;;;6.65;6.18;;;9.30;99.90;;;;;;4147338;28;20553;-58
2022/10/20 03:14:37;;;;;;;7.00;6.70;;;9.30;99.90;;;;;;4158288;28;20056;-58
2022/10/20 03:16:57;;;;;;;6.78;6.45;;;9.40;99.90;;;;;;4148190;28;20125;-58
2022/10/20 03:19:18;;;;;;;6.30;5.90;;;9.40;99.90;;;;;;4152961;28;20508;-58
2022/10/20 03:21:38;;;;;;;6.93;6.22;;;9.40;99.90;;;;;;4152816;28;20053;-58
2022/10/20 03:23:59;;;;;;;6.60;6.10;;;9.40;99.90;;;;;;4154429;28;20049;-58
2022/10/20 03:26:19;;;;;;;4.53;4.35;;;9.50;99.90;;;;;;4156709;28;20052;-58
2022/10/20 03:28:40;;;;;;;6.15;4.78;;;9.50;99.90;;;;;;4158421;28;20107;-58
2022/10/20 03:31:01;;;;;;;5.10;4.40;;;9.50;99.90;;;;;;4160076;28;20060;-58
2022/10/20 03:33:21;;;;;;;5.35;5.05;;;9.50;99.90;;;;;;4161463;28;20584;-58
2022/10/20 03:35:42;;;;;;;6.70;6.07;;;9.40;99.90;;;;;;4159000;28;20061;-58
2022/10/20 03:38:02;;;;;;;6.38;5.68;;;9.30;99.90;;;;;;4149590;28;20108;-59
2022/10/20 03:40:23;;;;;;;6.53;5.82;;;9.20;99.90;;;;;;4151631;28;20061;-60
2022/10/20 03:42:43;;;;;;;6.60;6.20;;;9.10;99.90;;;;;;4155884;28;20047;-61
2022/10/20 03:45:04;;;;;;;6.90;6.50;;;9.00;99.90;;;;;;4154633;28;20059;-60
2022/10/20 03:47:24;;;;;;;5.25;5.15;;;9.10;99.90;;;;;;4156075;28;20061;-60
2022/10/20 03:49:45;;;;;;;6.45;5.95;;;9.10;99.90;;;;;;4150207;28;20176;-59
2022/10/20 03:52:05;;;;;;;5.82;5.55;;;9.20;99.90;;;;;;4159790;28;20112;-60
2022/10/20 03:54:25;;;;;;;5.68;5.25;;;9.20;99.90;;;;;;4152139;28;20483;-60
2022/10/20 03:56:46;;;;;;;6.00;5.47;;;9.20;99.90;;;;;;4156627;28;20101;-60
2022/10/20 03:59:06;;;;;;;5.97;5.78;;;9.30;99.90;;;;;;4150709;28;20106;-61
2022/10/20 04:01:30;;;;;;;6.93;6.25;;;9.30;99.90;;;;;;4150771;28;20052;-61
2022/10/20 04:03:51;;;;;;;5.20;4.70;;;9.30;99.90;;;;;;4155446;28;20125;-60
2022/10/20 04:06:12;;;;;;;5.88;5.55;;;9.30;99.90;;;;;;4152320;28;20080;-61
2022/10/20 04:08:33;;;;;;;4.95;4.75;;;9.30;99.90;;;;;;4156809;28;20100;-60
2022/10/20 04:10:54;;;;;;;5.80;5.50;;;9.20;99.90;;;;;;4159920;28;20456;-60
2022/10/20 04:13:16;;;;;;;5.95;5.57;;;9.10;99.90;;;;;;4150368;28;20119;-61
2022/10/20 04:15:36;;;;;;;7.20;6.78;;;9.10;99.90;;;;;;4156748;28;20136;-60
2022/10/20 04:17:57;;;;;;;6.43;6.13;;;8.90;99.90;;;;;;4149748;28;20060;-61
2022/10/20 04:20:18;;;;;;;6.72;6.43;;;8.90;99.90;;;;;;4152271;28;20084;-61
2022/10/20 04:22:39;;;;;;;6.25;5.95;;;8.80;99.90;;;;;;4153432;28;20133;-60
2022/10/20 04:25:00;;;;;;;6.93;6.43;;;8.80;99.90;;;;;;4154466;28;20136;-61
2022/10/20 04:27:20;;;;;;;6.57;6.38;;;8.90;99.90;;;;;;4152556;28;20137;-60
2022/10/20 04:29:42;;;;;;;7.20;6.90;;;8.80;99.90;;;;;;4147105;28;20073;-61
2022/10/20 04:32:02;;;;;;;7.93;7.18;;;8.70;99.90;;;;;;4146765;28;20060;-59
2022/10/20 04:34:23;;;;;;;6.95;6.68;;;8.60;99.90;;;;;;4150942;28;20173;-61
2022/10/20 04:36:43;;;;;;;7.60;7.38;;;8.60;99.90;;;;;;4150780;28;20133;-61
2022/10/20 04:39:05;;;;;;;7.10;6.78;;;8.60;99.90;;;;;;4152971;28;20064;-61
2022/10/20 04:41:26;;;;;;;8.10;7.40;;;8.60;99.90;;;;;;4154182;28;20056;-61
2022/10/20 04:43:51;;;;;;;7.20;6.82;;;8.60;99.90;;;;;;4154269;28;20806;-61
2022/10/20 04:46:11;;;;;;;7.40;6.70;;;8.70;99.90;;;;;;4158708;28;20409;-61
2022/10/20 04:48:32;;;;;;;7.45;6.30;;;8.70;99.90;;;;;;4152194;28;20060;-61
2022/10/20 04:51:03;;;;;;;5.60;5.43;;;8.70;99.90;;;;;;4153785;28;20064;-61
2022/10/20 04:53:24;;;;;;;6.57;6.13;;;8.80;99.90;;;;;;4160584;28;20137;-61
2022/10/20 04:55:53;;;;;;;6.60;5.97;;;8.90;99.90;;;;;;4150806;28;20045;-61
2022/10/20 04:58:13;;;;;;;8.23;7.82;;;8.90;99.90;;;;;;4155854;28;20084;-61
2022/10/20 05:00:36;;;;;;;7.60;6.63;;;8.80;99.90;;;;;;4152829;28;20053;-61
2022/10/20 05:02:56;;;;;;;7.50;6.87;;;8.90;99.90;;;;;;4151521;28;20125;-61
2022/10/20 05:05:16;;;;;;;7.68;7.03;;;8.80;99.90;;;;;;4155088;28;20296;-61
2022/10/20 05:07:37;;;;;;;6.38;6.18;;;8.70;99.90;;;;;;4147847;28;20069;-61
2022/10/20 05:09:59;;;;;;;6.95;6.65;;;8.60;99.90;;;;;;4153867;28;20801;-61
2022/10/20 05:12:19;;;;;;;8.02;7.05;;;8.50;99.90;;;;;;4148968;28;20064;-61
2022/10/20 05:14:40;;;;;;;8.68;7.30;;;8.40;99.90;;;;;;4151551;28;20055;-61
2022/10/20 05:17:00;;;;;;;11.32;8.85;;;8.30;99.90;;;;;;4152457;28;20053;-61
2022/10/20 05:19:24;;;;;;;8.02;7.63;;;8.20;99.90;;;;;;4153919;28;20080;-61
2022/10/20 05:21:45;;;;;;;7.97;7.47;;;8.20;99.90;;;;;;4156449;28;20051;-61
2022/10/20 05:24:06;;;;;;;9.18;8.32;;;8.20;99.90;;;;;;4155551;28;20092;-61
2022/10/20 05:26:33;;;;;;;7.55;7.25;;;8.20;99.90;;;;;;4155379;28;20662;-61
2022/10/20 05:28:53;;;;;;;5.25;5.15;;;8.20;99.90;;;;;;4156448;28;20061;-61
2022/10/20 05:31:15;;;;;;;5.43;4.85;;;8.30;99.90;;;;;;4150273;28;20056;-61
2022/10/20 05:33:37;;;;;;;6.38;5.95;;;8.30;99.90;;;;;;4153593;28;20092;-60
2022/10/20 05:35:57;;;;;;;7.05;4.93;;;8.20;99.90;;;;;;4151267;28;20052;-61
2022/10/20 05:38:18;;;;;;;5.50;5.20;;;8.30;99.90;;;;;;4153471;28;20049;-61
2022/10/20 05:40:38;;;;;;;6.35;5.57;;;8.30;99.90;;;;;;4155954;28;20065;-61
2022/10/20 05:42:59;;;;;;;9.00;5.88;;;8.40;99.90;;;;;;4152110;28;20049;-61
2022/10/20 05:45:19;;;;;;;6.10;5.88;;;8.40;99.90;;;;;;4155132;28;20056;-61
2022/10/20 05:47:41;;;;;;;4.88;4.55;;;8.40;99.90;;;;;;4160362;28;20104;-60
2022/10/20 05:50:03;;;;;;;5.22;4.95;;;8.40;99.90;;;;;;4150553;28;20555;-60
2022/10/20 05:52:23;;;;;;;5.90;5.70;;;8.40;99.90;;;;;;4160837;28;20068;-61
2022/10/20 05:54:43;;;;;;;6.32;6.07;;;8.40;99.90;;;;;;4155288;28;20061;-60
2022/10/20 05:57:04;;;;;;;6.28;6.03;;;8.30;99.90;;;;;;4156365;28;20092;-61
2022/10/20 05:59:25;;;;;;;5.38;5.18;;;8.30;99.90;;;;;;4156041;28;20528;-61
2022/10/20 06:01:46;;;;;;;5.82;5.35;;;8.40;99.90;;;;;;4158287;28;20536;-61
2022/10/20 06:04:08;;;;;;;5.85;5.63;;;8.60;99.90;;;;;;4160523;28;20052;-60
2022/10/20 06:06:29;;;;;;;6.20;5.75;;;8.50;99.90;;;;;;4159185;28;20056;-60
2022/10/20 06:08:50;;;;;;;5.93;5.57;;;8.60;99.90;;;;;;4152057;28;20092;-60
2022/10/20 06:11:12;;;;;;;5.80;5.45;;;8.70;99.90;;;;;;4153001;28;20056;-61
2022/10/20 06:13:33;;;;;;;5.03;4.72;;;8.80;99.90;;;;;;4152847;28;20060;-60
2022/10/20 06:15:53;;;;;;;6.97;5.90;;;8.80;99.90;;;;;;4153436;28;20040;-60
2022/10/20 06:18:14;;;;;;;8.35;6.05;;;8.80;99.90;;;;;;4156147;28;20413;-61
2022/10/20 06:20:35;;;;;;;6.93;6.25;;;8.80;99.90;;;;;;4156522;28;20074;-61
2022/10/20 06:22:55;;;;;;;5.60;5.28;;;8.70;99.90;;;;;;4158350;28;20080;-60
2022/10/20 06:25:16;;;;;;;6.10;5.75;;;8.70;99.90;;;;;;4154706;28;20056;-61
2022/10/20 06:27:36;;;;;;;5.88;5.45;;;8.80;99.90;;;;;;4149867;28;20064;-61
2022/10/20 06:29:57;;;;;;;6.88;6.28;;;8.80;99.90;;;;;;4160952;28;20099;-61
2022/10/20 06:32:18;;;;;;;5.75;5.35;;;8.80;99.90;;;;;;4159409;28;20599;-61
2022/10/20 06:34:38;;;;;;;4.50;4.32;;;8.90;99.90;;;;;;4156064;28;20071;-61
2022/10/20 06:36:59;;;;;;;5.50;5.38;;;8.90;99.90;;;;;;4154670;28;20099;-61
2022/10/20 06:39:22;;;;;;;6.50;6.05;;;8.80;99.90;;;;;;4155707;28;20092;-61
2022/10/20 06:41:45;;;;;;;;;;;8.70;99.90;;;;;;4156922;28;20052;-61
2022/10/20 06:44:06;;;;;;;6.38;5.78;;;8.60;99.90;;;;;;4148503;28;20459;-60
2022/10/20 06:46:29;;;;;;;6.93;5.53;;;8.60;99.90;;;;;;4161497;28;20059;-60
2022/10/20 06:48:50;;;;;;;5.00;4.65;;;8.70;99.90;;;;;;4150921;28;20405;-61
2022/10/20 06:51:20;;;;;;;4.78;4.38;;;8.80;99.90;;;;;;4158420;28;20532;-61
2022/10/20 06:53:42;;;;;;;4.75;4.43;;;8.90;99.90;;;;;;4155545;28;20111;-60
2022/10/20 06:56:10;;;;;;;5.75;5.45;;;9.10;99.90;;;;;;4156779;28;20607;-61
2022/10/20 06:58:32;;;;;;;5.68;5.30;;;9.10;99.90;;;;;;4156237;28;20049;-61
2022/10/20 07:01:08;;;;;;;4.30;4.10;;;9.20;99.90;;;;;;4156346;28;20056;-61
2022/10/20 07:03:31;;;;;;;6.22;6.03;;;9.20;99.90;;;;;;4158018;28;20056;-61
2022/10/20 07:05:51;;;;;;;4.95;4.60;;;9.30;99.90;;;;;;4150989;28;20143;-61
2022/10/20 07:08:12;;;;;;;4.75;4.65;;;9.40;99.90;;;;;;4152382;28;20535;-61
2022/10/20 07:10:32;;;;;;;6.45;6.03;;;9.50;99.90;;;;;;4152670;28;20129;-61
2022/10/20 07:12:54;;;;;;;6.20;5.78;;;9.50;99.90;;;;;;4154787;28;20079;-61
2022/10/20 07:15:15;;;;;;;5.97;5.57;;;9.60;99.90;;;;;;4154432;28;20520;-61
2022/10/20 07:17:35;;;;;;;5.40;5.07;;;9.70;99.90;;;;;;4155618;28;20052;-61
2022/10/20 07:19:56;;;;;;;6.43;5.35;;;9.90;99.90;;;;;;4157900;28;20052;-61
2022/10/20 07:22:17;;;;;;;5.28;4.82;;;10.00;99.90;;;;;;4162800;28;20520;-61
2022/10/20 07:24:38;;;;;;;4.68;3.53;;;10.00;99.90;;;;;;4148094;28;20129;-61
2022/10/20 07:26:58;;;;;;;4.75;4.53;;;10.30;99.90;;;;;;4157580;28;20068;-60
2022/10/20 07:29:19;;;;;;;5.18;4.97;;;10.40;99.90;;;;;;4149411;28;20060;-59
2022/10/20 07:31:44;;;;;;;4.78;4.68;;;10.50;99.90;;;;;;4156106;28;20052;-61
2022/10/20 07:34:06;;;;;;;4.88;4.22;;;10.60;99.90;;;;;;4155408;28;20437;-61
2022/10/20 07:36:44;;;;;;;4.88;4.75;;;10.70;99.90;;;;;;4151455;28;20180;-61
2022/10/20 07:39:05;;;;;;;4.78;4.50;;;10.70;99.90;;;;;;4158556;28;20488;-61
2022/10/20 07:41:27;;;;;;;7.65;5.20;;;10.70;99.90;;;;;;4151364;28;20649;-61
2022/10/20 07:43:47;;;;;;;4.22;3.88;;;10.70;99.90;;;;;;4153173;28;20057;-61
2022/10/20 07:46:09;;;;;;;5.85;5.30;;;10.80;99.90;;;;;;4149308;28;20048;-61
2022/10/20 07:48:29;;;;;;;9.70;5.18;;;11.00;99.90;;;;;;4154721;28;20484;-60
2022/10/20 07:50:50;;;;;;;5.10;4.82;;;11.10;99.90;;;;;;4152544;28;20052;-60
2022/10/20 07:53:11;;;;;;;4.25;3.60;;;11.30;99.90;;;;;;4150544;28;20452;-60
2022/10/20 07:55:33;;;;;;;3.40;3.25;;;11.50;99.90;;;;;;4151448;28;20118;-61
2022/10/20 07:57:59;;;;;;;5.32;3.15;;;11.60;99.90;;;;;;4153387;28;20643;-61
2022/10/20 08:00:20;;;;;;;3.80;2.92;;;11.70;99.90;;;;;;4153428;28;20069;-61
2022/10/20 08:02:41;;;;;;;3.60;3.35;;;11.90;99.90;;;;;;4150508;28;20049;-61
2022/10/20 08:05:01;;;;;;;2.88;2.67;;;12.00;99.90;;;;;;4157739;28;20056;-60
2022/10/20 08:07:22;;;;;;;3.15;2.30;;;12.10;99.90;;;;;;4154732;28;20049;-61
2022/10/20 08:09:43;;;;;;;3.17;2.65;;;12.20;99.90;;;;;;4155445;28;20100;-61
2022/10/20 08:12:04;;;;;;;4.90;1.98;;;12.40;99.90;;;;;;4153608;28;20052;-60
2022/10/20 08:14:25;;;;;;;2.85;2.75;;;12.50;99.90;;;;;;4152587;28;20052;-61
2022/10/20 08:19:03;;;;;;;4.57;2.63;;;12.80;99.90;;;;;;3485064;26;20524;-82
2022/10/20 08:21:37;;;;;;;3.30;3.17;;;13.00;99.90;;;;;;4150854;28;20400;-82
2022/10/20 08:23:58;;;;;;;3.20;2.67;;;13.10;99.90;;;;;;4151002;28;20125;-83
2022/10/20 08:26:21;;;;;;;2.70;2.50;;;13.30;99.90;;;;;;4154099;28;20056;-83
2022/10/20 08:28:42;;;;;;;5.15;4.55;;;13.40;99.90;;;;;;4161237;23;20159;-82
2022/10/20 08:31:05;;;;;;;3.15;2.78;;;13.50;99.90;;;;;;4150321;23;20273;-83
2022/10/20 08:33:27;;;;;;;3.42;3.20;;;13.50;99.90;;;;;;4138279;28;20084;-83
2022/10/20 08:35:48;;;;;;;3.03;2.80;;;13.60;99.90;;;;;;4149780;28;20060;-82
2022/10/20 08:38:09;;;;;;;3.45;3.15;;;13.60;99.90;;;;;;4152239;28;20140;-82
2022/10/20 08:40:30;;;;;;;2.83;2.17;;;13.70;99.90;;;;;;4151753;28;20416;-83
2022/10/20 08:42:51;;;;;;;2.67;2.53;;;13.90;99.90;;;;;;4147157;28;20424;-83
2022/10/20 08:45:22;;;;;;;2.67;2.47;;;14.00;99.90;;;;;;4153481;28;20439;-82
2022/10/20 08:47:44;;;;;;;3.22;2.97;;;14.10;99.90;;;;;;4156060;28;20526;-82
2022/10/20 08:50:08;;;;;;;2.08;1.98;;;14.20;99.90;;;;;;4152296;28;20148;-81
2022/10/20 08:52:28;;;;;;;3.10;2.38;;;14.30;99.90;;;;;;4151989;28;20116;-82
2022/10/20 08:54:54;;;;;;;2.70;2.50;;;14.30;99.90;;;;;;4153236;28;20053;-82
2022/10/20 08:57:27;;;;;;;2.83;1.60;;;14.40;99.90;;;;;;4155510;28;20056;-81
2022/10/20 08:59:49;;;;;;;;;;;14.50;99.90;;;;;;4154118;28;20056;-81
2022/10/20 09:02:16;;;;;;;2.92;2.45;;;14.60;99.90;;;;;;4153733;28;20359;-81
2022/10/20 09:04:42;;;;;;;7.93;3.47;;;14.70;99.90;;;;;;4148600;28;20077;-83
2022/10/20 09:07:25;;;;;;;1.70;1.70;;;14.90;99.90;;;;;;4136965;28;20125;-81
2022/10/20 09:09:46;;;;;;;3.35;2.92;;;15.00;99.90;;;;;;4149166;28;20077;-82
2022/10/20 09:12:12;;;;;;;2.58;2.47;;;15.20;99.90;;;;;;4140611;28;20145;-82
